Time;durP1;ratioP1;P1;durP2;ratioP2;P2;SDS_P1;SDS_P2;PMS_P1;PMS_P2;Temp;Humidity;BMP_temperature;BMP_pressure;BME280_temperature;BME280_humidity;BME280_pressure;Samples;Min_cycle;Max_cycle;Signal;HPM_P1;HPM_P2
2023/10/22 00:02:19;;;;;;;1.50;1.00;;;14.50;98.20;;;;;;4995792;28;20476;-84
2023/10/22 00:04:46;;;;;;;1.50;1.00;;;14.40;98.20;;;;;;4997121;28;20955;-82
2023/10/22 00:07:14;;;;;;;1.50;1.00;;;14.40;98.20;;;;;;4992494;28;20498;-80
2023/10/22 00:09:41;;;;;;;1.57;1.00;;;14.40;98.20;;;;;;5012565;22;21002;-81
2023/10/22 00:12:10;;;;;;;1.50;1.00;;;14.30;98.20;;;;;;4999161;28;20826;-81
2023/10/22 00:14:37;;;;;;;1.50;1.00;;;14.30;98.20;;;;;;5008063;28;20471;-81
2023/10/22 00:17:04;;;;;;;1.50;1.00;;;14.30;98.20;;;;;;4993980;28;20598;-82
2023/10/22 00:19:31;;;;;;;1.50;1.00;;;14.30;98.20;;;;;;5007554;28;20468;-81
2023/10/22 00:21:58;;;;;;;1.50;1.00;;;14.30;98.20;;;;;;5002774;28;20575;-81
2023/10/22 00:24:25;;;;;;;1.50;1.00;;;14.20;98.20;;;;;;5003861;28;20495;-81
2023/10/22 00:26:51;;;;;;;1.50;1.10;;;14.20;98.20;;;;;;4999969;28;20487;-81
2023/10/22 00:29:20;;;;;;;1.50;1.00;;;14.20;98.20;;;;;;5004921;28;20551;-81
2023/10/22 00:31:46;;;;;;;1.50;1.00;;;14.20;98.20;;;;;;4996534;28;20530;-81
2023/10/22 00:34:13;;;;;;;1.60;1.10;;;14.20;98.20;;;;;;5008792;28;20470;-82
2023/10/22 00:36:41;;;;;;;1.50;1.03;;;14.20;98.20;;;;;;4996937;28;20564;-81
2023/10/22 00:39:08;;;;;;;1.50;1.10;;;14.20;98.20;;;;;;5000855;28;20485;-81
2023/10/22 00:41:34;;;;;;;1.50;1.00;;;14.20;98.20;;;;;;4994795;28;20498;-81
2023/10/22 00:44:01;;;;;;;1.60;1.00;;;14.20;98.20;;;;;;5007040;28;20507;-81
2023/10/22 00:46:30;;;;;;;1.53;1.10;;;14.10;98.20;;;;;;4998593;28;20491;-80
2023/10/22 00:48:57;;;;;;;1.50;1.07;;;14.20;98.20;;;;;;5012101;28;20755;-81
2023/10/22 00:51:24;;;;;;;1.50;1.03;;;14.10;98.20;;;;;;4997763;28;20487;-81
2023/10/22 00:53:52;;;;;;;1.50;1.00;;;14.10;98.20;;;;;;4999151;28;20463;-81
2023/10/22 00:56:20;;;;;;;1.50;1.00;;;14.10;98.20;;;;;;4997983;28;20472;-80
2023/10/22 00:58:48;;;;;;;1.57;1.00;;;14.10;98.20;;;;;;5008045;28;20468;-82
2023/10/22 01:01:16;;;;;;;1.50;1.00;;;14.10;98.20;;;;;;4993019;28;20480;-82
2023/10/22 01:03:44;;;;;;;1.50;1.10;;;14.10;98.20;;;;;;5010275;28;20599;-84
2023/10/22 01:06:11;;;;;;;1.60;1.10;;;14.10;98.20;;;;;;4997629;28;21113;-82
2023/10/22 01:08:38;;;;;;;1.50;1.00;;;14.10;98.20;;;;;;5014268;28;20540;-83
2023/10/22 01:11:06;;;;;;;1.50;0.93;;;14.10;98.20;;;;;;5001408;28;20489;-82
2023/10/22 01:13:33;;;;;;;1.50;1.00;;;14.10;98.20;;;;;;5015432;28;20464;-84
2023/10/22 01:16:00;;;;;;;1.50;1.00;;;14.10;98.20;;;;;;5002807;28;20474;-82
2023/10/22 01:18:27;;;;;;;1.50;1.00;;;14.10;98.20;;;;;;5014241;28;20995;-79
2023/10/22 01:20:55;;;;;;;1.50;0.97;;;14.10;98.20;;;;;;5003053;28;20491;-81
2023/10/22 01:23:23;;;;;;;1.50;1.10;;;14.10;98.20;;;;;;5011945;28;20547;-82
2023/10/22 01:25:51;;;;;;;1.50;1.00;;;14.10;98.20;;;;;;4996162;28;20485;-82
2023/10/22 01:28:18;;;;;;;1.50;1.00;;;14.10;98.20;;;;;;5011469;28;20475;-81
2023/10/22 01:30:45;;;;;;;1.50;1.00;;;14.10;98.20;;;;;;5008951;28;20562;-80
2023/10/22 01:33:12;;;;;;;1.50;1.00;;;14.10;98.20;;;;;;5007463;28;20516;-81
2023/10/22 01:35:39;;;;;;;1.53;1.10;;;14.10;98.20;;;;;;5010790;28;20472;-81
2023/10/22 01:38:06;;;;;;;1.57;1.00;;;14.10;98.20;;;;;;5001129;28;20556;-80
2023/10/22 01:40:35;;;;;;;1.50;1.10;;;14.10;98.20;;;;;;5011614;28;20571;-81
2023/10/22 01:43:02;;;;;;;1.50;0.90;;;14.10;98.20;;;;;;5002994;28;20521;-81
2023/10/22 01:45:29;;;;;;;1.60;1.10;;;14.10;98.20;;;;;;5012924;28;20464;-82
2023/10/22 01:47:56;;;;;;;1.50;1.03;;;14.10;98.20;;;;;;5002717;28;20526;-81
2023/10/22 01:50:22;;;;;;;1.50;1.00;;;14.10;98.20;;;;;;5010933;28;20515;-81
2023/10/22 01:52:49;;;;;;;1.57;1.10;;;14.10;98.20;;;;;;5010795;28;20493;-83
2023/10/22 01:55:16;;;;;;;1.50;1.00;;;14.00;98.20;;;;;;5008460;28;20476;-82
2023/10/22 01:57:44;;;;;;;1.50;1.00;;;14.00;98.20;;;;;;4993291;28;20598;-84
2023/10/22 02:00:12;;;;;;;1.50;1.10;;;14.00;98.20;;;;;;5011320;28;20483;-79
2023/10/22 02:02:40;;;;;;;1.50;1.00;;;14.00;98.20;;;;;;5004574;28;20476;-81
2023/10/22 02:05:07;;;;;;;1.50;1.00;;;13.90;98.20;;;;;;5017123;28;20539;-81
2023/10/22 02:07:37;;;;;;;1.60;1.10;;;13.90;98.20;;;;;;5011966;28;20935;-83
2023/10/22 02:10:04;;;;;;;1.50;1.00;;;13.90;98.20;;;;;;5012973;28;20495;-83
2023/10/22 02:12:31;;;;;;;1.50;1.00;;;13.90;98.20;;;;;;5000995;28;20580;-81
2023/10/22 02:14:59;;;;;;;1.50;1.00;;;13.80;98.20;;;;;;5014991;28;20463;-81
2023/10/22 02:17:25;;;;;;;1.50;1.00;;;13.80;98.20;;;;;;5008714;28;20600;-81
2023/10/22 02:19:52;;;;;;;1.50;1.00;;;13.80;98.20;;;;;;5013047;28;20571;-82
2023/10/22 02:22:19;;;;;;;1.50;1.00;;;13.80;98.20;;;;;;5005690;28;20574;-82
2023/10/22 02:24:46;;;;;;;1.50;0.90;;;13.80;98.20;;;;;;5008108;28;20464;-82
2023/10/22 02:27:13;;;;;;;1.50;1.10;;;13.80;98.20;;;;;;5004454;28;20487;-81
2023/10/22 02:29:39;;;;;;;1.50;1.10;;;13.80;98.20;;;;;;5020127;28;20472;-82
2023/10/22 02:32:08;;;;;;;1.50;0.90;;;13.80;98.20;;;;;;5003573;28;20647;-82
2023/10/22 02:34:36;;;;;;;1.50;1.00;;;13.80;98.20;;;;;;5010572;28;20464;-83
2023/10/22 02:37:03;;;;;;;1.53;1.10;;;13.80;98.20;;;;;;5003860;28;20476;-82
2023/10/22 02:39:31;;;;;;;1.50;1.00;;;13.80;98.20;;;;;;5017459;28;20468;-80
2023/10/22 02:41:57;;;;;;;1.50;1.07;;;13.80;98.20;;;;;;5017646;28;20520;-81
2023/10/22 02:44:24;;;;;;;1.50;1.00;;;13.80;98.20;;;;;;5011377;28;20537;-82
2023/10/22 02:46:51;;;;;;;1.50;1.00;;;13.80;98.20;;;;;;5004026;28;20515;-81
2023/10/22 02:49:20;;;;;;;1.50;1.00;;;13.80;98.20;;;;;;5015684;28;20472;-82
2023/10/22 02:51:48;;;;;;;1.50;1.00;;;13.70;98.20;;;;;;5003839;28;20480;-82
2023/10/22 02:54:15;;;;;;;1.50;1.00;;;13.80;98.20;;;;;;5020877;28;20491;-83
2023/10/22 02:56:42;;;;;;;1.50;0.97;;;13.80;98.20;;;;;;5002163;28;20473;-83
2023/10/22 02:59:09;;;;;;;1.50;1.10;;;13.80;98.20;;;;;;5015406;28;20571;-82
2023/10/22 03:01:36;;;;;;;1.50;1.00;;;13.80;98.20;;;;;;5000964;28;20605;-81
2023/10/22 03:04:03;;;;;;;1.60;1.00;;;13.80;98.20;;;;;;5012297;28;20464;-81
2023/10/22 03:06:32;;;;;;;1.60;1.10;;;13.80;98.20;;;;;;4998928;28;20601;-82
2023/10/22 03:08:59;;;;;;;1.50;1.10;;;13.80;98.20;;;;;;5008373;28;20548;-81
2023/10/22 03:11:25;;;;;;;1.97;1.77;;;13.80;98.20;;;;;;4999868;28;20493;-83
2023/10/22 03:13:52;;;;;;;1.60;1.10;;;13.80;98.20;;;;;;5010374;28;20459;-81
2023/10/22 03:16:19;;;;;;;1.50;1.00;;;13.80;98.20;;;;;;4998934;28;20487;-82
2023/10/22 03:18:47;;;;;;;1.50;1.10;;;13.80;98.20;;;;;;4989201;28;20457;-82
2023/10/22 03:21:16;;;;;;;1.50;1.00;;;13.80;98.20;;;;;;5002559;28;20488;-82
2023/10/22 03:23:44;;;;;;;1.50;1.00;;;13.80;98.20;;;;;;5013409;28;20842;-82
2023/10/22 03:26:14;;;;;;;1.50;1.00;;;13.80;98.20;;;;;;5003962;28;20491;-82
2023/10/22 03:28:41;;;;;;;1.50;1.00;;;13.80;98.20;;;;;;5010422;28;20745;-82
2023/10/22 03:31:08;;;;;;;1.50;1.00;;;13.80;98.20;;;;;;5004108;28;21453;-82
2023/10/22 03:33:35;;;;;;;1.50;1.10;;;13.80;98.20;;;;;;5015002;28;20464;-81
2023/10/22 03:36:03;;;;;;;1.50;1.00;;;13.90;98.20;;;;;;4999945;28;20574;-82
2023/10/22 03:38:31;;;;;;;1.53;1.00;;;13.90;98.20;;;;;;5007127;28;20547;-82
2023/10/22 03:41:00;;;;;;;1.50;1.10;;;13.80;98.20;;;;;;4993475;28;20484;-81
2023/10/22 03:43:28;;;;;;;1.50;1.00;;;13.80;98.20;;;;;;5005156;28;20468;-83
2023/10/22 03:45:54;;;;;;;1.50;1.00;;;13.80;98.20;;;;;;4997882;28;20519;-82
2023/10/22 03:48:21;;;;;;;1.57;1.00;;;13.70;98.20;;;;;;5005440;28;20503;-81
2023/10/22 03:50:48;;;;;;;1.50;1.00;;;13.70;98.20;;;;;;5001593;28;20484;-80
2023/10/22 03:53:15;;;;;;;1.57;1.00;;;13.70;98.20;;;;;;5017272;28;20471;-82
2023/10/22 03:55:42;;;;;;;1.50;1.00;;;13.70;98.20;;;;;;5011434;28;20464;-81
2023/10/22 03:58:10;;;;;;;1.50;1.00;;;13.70;98.20;;;;;;5003213;28;20495;-81
2023/10/22 04:00:37;;;;;;;1.50;1.00;;;13.60;98.20;;;;;;5014376;28;20484;-81
2023/10/22 04:03:04;;;;;;;1.53;1.10;;;13.60;98.20;;;;;;4996709;28;20476;-79
2023/10/22 04:05:31;;;;;;;1.50;1.00;;;13.60;98.20;;;;;;5015251;28;20470;-82
2023/10/22 04:07:58;;;;;;;1.50;1.00;;;13.50;98.20;;;;;;5003055;28;20498;-80
2023/10/22 04:10:25;;;;;;;1.50;1.00;;;13.50;98.20;;;;;;5012802;28;20586;-82
2023/10/22 04:12:52;;;;;;;1.50;1.00;;;13.50;98.20;;;;;;5001920;28;20523;-82
2023/10/22 04:15:23;;;;;;;1.50;1.00;;;13.50;98.20;;;;;;5004019;28;20739;-81
2023/10/22 04:17:51;;;;;;;1.50;0.97;;;13.40;98.20;;;;;;4983511;28;20958;-81
2023/10/22 04:20:18;;;;;;;1.53;1.10;;;13.40;98.20;;;;;;5000920;28;20492;-80
2023/10/22 04:22:45;;;;;;;1.53;1.00;;;13.40;98.20;;;;;;4988107;28;20741;-79
2023/10/22 04:25:13;;;;;;;1.50;1.00;;;13.50;98.20;;;;;;5006892;28;20464;-81
2023/10/22 04:27:40;;;;;;;1.50;1.10;;;13.50;98.20;;;;;;4992729;28;20576;-81
2023/10/22 04:30:09;;;;;;;1.53;1.00;;;13.50;98.20;;;;;;5006661;28;20479;-80
2023/10/22 04:32:37;;;;;;;1.53;1.10;;;13.50;98.20;;;;;;4995245;28;20627;-80
2023/10/22 04:35:05;;;;;;;1.57;1.00;;;13.50;98.20;;;;;;5007449;28;20555;-80
2023/10/22 04:37:32;;;;;;;1.53;1.00;;;13.50;98.20;;;;;;4995982;28;20472;-79
2023/10/22 04:39:59;;;;;;;1.50;1.00;;;13.50;98.20;;;;;;5004975;28;20487;-80
2023/10/22 04:42:27;;;;;;;1.50;1.00;;;13.50;98.20;;;;;;4990217;28;20566;-81
2023/10/22 04:44:54;;;;;;;1.50;1.00;;;13.50;98.20;;;;;;5005095;28;20457;-81
2023/10/22 04:47:21;;;;;;;1.53;1.10;;;13.50;98.20;;;;;;4992478;28;20610;-81
2023/10/22 04:49:52;;;;;;;1.50;1.00;;;13.50;98.20;;;;;;5007932;28;20484;-83
2023/10/22 04:52:27;;;;;;;1.50;1.00;;;13.50;98.20;;;;;;4998231;28;20533;-81
2023/10/22 04:54:54;;;;;;;1.50;1.00;;;13.50;98.20;;;;;;5006488;28;20495;-82
2023/10/22 04:57:21;;;;;;;1.50;1.00;;;13.50;98.20;;;;;;4994985;28;20487;-81
2023/10/22 04:59:48;;;;;;;1.50;1.00;;;13.50;98.20;;;;;;5005452;28;20484;-81
2023/10/22 05:02:14;;;;;;;1.50;1.00;;;13.50;98.20;;;;;;4994433;28;20511;-81
2023/10/22 05:04:41;;;;;;;1.50;1.00;;;13.50;98.20;;;;;;5004414;28;20580;-81
2023/10/22 05:07:09;;;;;;;1.53;1.00;;;13.50;98.20;;;;;;4992856;28;20564;-80
2023/10/22 05:09:36;;;;;;;1.50;1.00;;;13.50;98.20;;;;;;5002184;28;20506;-80
2023/10/22 05:12:03;;;;;;;1.50;1.00;;;13.50;98.20;;;;;;4994823;28;20487;-80
2023/10/22 05:14:30;;;;;;;1.57;1.10;;;13.50;98.20;;;;;;5004249;28;20862;-79
2023/10/22 05:16:57;;;;;;;1.57;1.00;;;13.50;98.20;;;;;;4996506;28;20516;-80
2023/10/22 05:19:24;;;;;;;1.50;1.00;;;13.50;98.20;;;;;;5003518;28;20551;-80
2023/10/22 05:21:52;;;;;;;1.57;1.10;;;13.50;98.20;;;;;;4998832;28;20472;-80
2023/10/22 05:24:20;;;;;;;1.50;1.00;;;13.50;98.20;;;;;;5009875;28;20900;-80
2023/10/22 05:26:46;;;;;;;1.50;1.10;;;13.50;98.20;;;;;;4999694;28;20579;-80
2023/10/22 05:29:13;;;;;;;1.50;1.03;;;13.50;98.20;;;;;;5011706;28;21057;-78
2023/10/22 05:31:40;;;;;;;1.50;1.00;;;13.50;98.20;;;;;;4999191;28;20488;-79
2023/10/22 05:34:07;;;;;;;1.53;1.00;;;13.40;98.20;;;;;;5014221;28;20474;-77
2023/10/22 05:36:35;;;;;;;1.57;1.00;;;13.30;98.20;;;;;;5003677;28;20487;-77
2023/10/22 05:39:03;;;;;;;1.50;1.00;;;13.30;98.20;;;;;;5005007;28;20488;-78
2023/10/22 05:41:31;;;;;;;1.50;1.00;;;13.20;98.20;;;;;;5001378;28;20494;-79
2023/10/22 05:44:01;;;;;;;1.53;1.00;;;13.10;98.20;;;;;;5017261;28;20484;-79
2023/10/22 05:46:28;;;;;;;1.57;1.10;;;13.10;98.20;;;;;;5003560;28;20495;-79
2023/10/22 05:48:55;;;;;;;1.53;1.10;;;13.00;98.20;;;;;;5006746;28;20595;-79
2023/10/22 05:51:23;;;;;;;1.53;1.00;;;13.00;98.20;;;;;;4998074;28;20845;-78
2023/10/22 05:53:50;;;;;;;1.50;1.00;;;12.90;98.20;;;;;;5017145;28;20538;-79
2023/10/22 05:56:17;;;;;;;1.50;1.00;;;12.90;98.20;;;;;;5000999;28;20611;-79
2023/10/22 05:58:45;;;;;;;1.50;1.10;;;12.80;98.20;;;;;;5006111;28;20484;-79
2023/10/22 06:01:13;;;;;;;1.53;1.10;;;12.80;98.20;;;;;;4999586;28;20488;-79
2023/10/22 06:03:40;;;;;;;1.60;1.00;;;12.70;98.20;;;;;;5009195;28;20459;-79
2023/10/22 06:06:07;;;;;;;1.50;1.10;;;12.70;98.20;;;;;;4999298;28;20540;-78
2023/10/22 06:08:33;;;;;;;1.50;1.00;;;12.60;98.20;;;;;;5006125;28;20496;-79
2023/10/22 06:11:04;;;;;;;1.50;1.00;;;12.60;98.20;;;;;;4994741;28;20912;-79
2023/10/22 06:13:31;;;;;;;1.57;1.10;;;12.60;98.20;;;;;;5008597;28;20464;-80
2023/10/22 06:16:00;;;;;;;1.60;1.00;;;12.60;98.20;;;;;;4995553;28;20510;-80
2023/10/22 06:18:26;;;;;;;1.53;1.03;;;12.50;98.20;;;;;;5000927;28;20676;-80
2023/10/22 06:20:53;;;;;;;1.50;1.00;;;12.50;98.20;;;;;;4998092;28;20484;-79
2023/10/22 06:23:21;;;;;;;1.53;1.00;;;12.50;98.20;;;;;;5004928;28;20460;-79
2023/10/22 06:25:48;;;;;;;1.53;1.00;;;12.50;98.20;;;;;;5001101;28;20460;-80
2023/10/22 06:28:15;;;;;;;1.53;1.10;;;12.50;98.20;;;;;;5005830;28;20647;-79
2023/10/22 06:30:42;;;;;;;1.50;1.00;;;12.50;98.20;;;;;;5006469;28;20579;-79
2023/10/22 06:33:10;;;;;;;1.57;1.00;;;12.50;98.20;;;;;;4997975;28;20512;-79
2023/10/22 06:35:37;;;;;;;1.53;1.00;;;12.50;98.20;;;;;;5010251;28;20491;-80
2023/10/22 06:38:04;;;;;;;1.50;1.10;;;12.50;98.20;;;;;;5001463;28;21017;-80
2023/10/22 06:40:34;;;;;;;1.53;1.10;;;12.50;98.20;;;;;;5008290;28;20483;-79
2023/10/22 06:43:01;;;;;;;1.60;1.10;;;12.50;98.20;;;;;;4992251;28;20518;-80
2023/10/22 06:45:28;;;;;;;1.53;1.00;;;12.50;98.20;;;;;;5008282;28;21098;-80
2023/10/22 06:47:56;;;;;;;1.53;1.03;;;12.50;98.20;;;;;;4993554;28;20546;-80
2023/10/22 06:50:24;;;;;;;1.57;1.00;;;12.50;98.20;;;;;;5006961;28;20495;-80
2023/10/22 06:52:51;;;;;;;1.57;1.10;;;12.50;98.20;;;;;;4995963;28;20490;-80
2023/10/22 06:55:19;;;;;;;1.50;1.00;;;12.50;98.20;;;;;;5006055;28;20707;-80
2023/10/22 06:57:46;;;;;;;1.50;1.00;;;12.50;98.20;;;;;;4996547;28;20484;-79
2023/10/22 07:00:14;;;;;;;1.50;1.00;;;12.60;98.20;;;;;;5007141;28;20881;-79
2023/10/22 07:02:40;;;;;;;1.50;1.00;;;12.60;98.20;;;;;;4994290;28;20498;-80
2023/10/22 07:05:10;;;;;;;1.50;1.00;;;12.60;98.20;;;;;;5004032;28;20560;-80
2023/10/22 07:07:41;;;;;;;1.50;1.00;;;12.60;98.20;;;;;;4994327;28;20807;-80
2023/10/22 07:10:10;;;;;;;1.60;1.10;;;12.60;98.20;;;;;;5005184;28;20535;-80
2023/10/22 07:12:36;;;;;;;1.50;1.00;;;12.60;98.20;;;;;;4996617;28;20480;-80
2023/10/22 07:15:04;;;;;;;1.53;1.03;;;12.70;98.20;;;;;;5007298;28;20621;-79
2023/10/22 07:17:31;;;;;;;1.53;1.00;;;12.70;98.20;;;;;;4996281;28;20477;-80
2023/10/22 07:19:57;;;;;;;1.53;1.10;;;12.80;98.20;;;;;;5005601;28;21854;-79
2023/10/22 07:22:25;;;;;;;1.53;1.07;;;12.80;98.20;;;;;;4999787;28;20487;-80
2023/10/22 07:24:53;;;;;;;1.50;1.00;;;12.80;98.20;;;;;;5004587;28;20504;-78
2023/10/22 07:27:19;;;;;;;1.57;1.10;;;12.80;98.20;;;;;;4995554;28;20571;-78
2023/10/22 07:29:46;;;;;;;1.53;1.10;;;12.90;98.20;;;;;;5005600;28;20491;-79
2023/10/22 07:32:13;;;;;;;1.50;1.00;;;12.90;98.20;;;;;;4996636;28;20512;-78
2023/10/22 07:34:40;;;;;;;1.50;1.10;;;12.90;98.20;;;;;;5004852;28;20482;-78
2023/10/22 07:37:07;;;;;;;1.50;1.00;;;12.90;98.20;;;;;;4995129;28;21086;-78
2023/10/22 07:39:34;;;;;;;1.53;1.00;;;13.00;98.20;;;;;;5003378;28;20468;-79
2023/10/22 07:42:02;;;;;;;1.50;1.00;;;13.00;98.20;;;;;;4997176;28;20527;-78
2023/10/22 07:44:29;;;;;;;1.50;1.00;;;13.00;98.20;;;;;;5002170;28;20464;-78
2023/10/22 07:46:55;;;;;;;1.60;1.10;;;13.10;98.20;;;;;;4991528;28;20485;-79
2023/10/22 07:49:22;;;;;;;1.50;1.00;;;13.10;98.20;;;;;;5006207;28;21030;-78
2023/10/22 07:51:49;;;;;;;1.60;1.13;;;13.10;98.20;;;;;;4995677;28;20996;-79
2023/10/22 07:54:16;;;;;;;1.50;1.10;;;13.20;98.20;;;;;;5006688;28;20468;-79
2023/10/22 07:56:43;;;;;;;1.57;1.03;;;13.20;98.20;;;;;;4993570;28;20559;-79
2023/10/22 07:59:11;;;;;;;1.53;1.00;;;13.20;98.20;;;;;;5002041;28;20492;-79
2023/10/22 08:01:38;;;;;;;1.60;1.10;;;13.20;98.20;;;;;;4993517;28;20499;-78
2023/10/22 08:04:05;;;;;;;1.50;1.10;;;13.30;98.20;;;;;;4999452;28;20766;-78
2023/10/22 08:06:32;;;;;;;1.53;1.00;;;13.30;98.20;;;;;;4996810;28;20681;-79
2023/10/22 08:08:59;;;;;;;1.50;1.00;;;13.30;98.20;;;;;;5000826;28;20491;-78
2023/10/22 08:11:25;;;;;;;1.57;1.00;;;13.30;98.20;;;;;;4993192;28;20564;-78
2023/10/22 08:13:52;;;;;;;1.50;0.93;;;13.30;98.20;;;;;;5000331;28;20464;-79
2023/10/22 08:16:20;;;;;;;1.53;1.00;;;13.30;98.20;;;;;;4995373;28;20475;-79
2023/10/22 08:18:47;;;;;;;1.50;1.10;;;13.40;98.20;;;;;;5000125;28;20939;-79
2023/10/22 08:21:14;;;;;;;1.50;1.00;;;13.40;98.20;;;;;;4995062;28;20490;-79
2023/10/22 08:23:41;;;;;;;1.50;1.00;;;13.40;98.20;;;;;;5008513;28;20487;-78
2023/10/22 08:26:08;;;;;;;1.50;1.00;;;13.50;98.20;;;;;;5000275;28;20532;-78
2023/10/22 08:28:35;;;;;;;1.50;1.00;;;13.50;98.20;;;;;;5001364;28;20566;-78
2023/10/22 08:31:02;;;;;;;1.53;1.00;;;13.50;98.20;;;;;;4993233;28;20484;-79
2023/10/22 08:33:31;;;;;;;1.53;1.00;;;13.60;98.20;;;;;;5007029;28;20463;-78
2023/10/22 08:36:05;;;;;;;1.50;1.00;;;13.60;98.20;;;;;;4993618;28;20467;-78
2023/10/22 08:38:32;;;;;;;1.50;0.93;;;13.60;98.20;;;;;;5006887;28;20460;-78
2023/10/22 08:41:01;;;;;;;1.50;1.00;;;13.60;98.20;;;;;;4993000;28;20938;-78
2023/10/22 08:43:32;;;;;;;1.53;1.00;;;13.60;98.20;;;;;;5003486;28;20464;-78
2023/10/22 08:45:59;;;;;;;1.50;1.00;;;13.50;98.20;;;;;;4994430;28;20468;-78
2023/10/22 08:48:27;;;;;;;1.53;1.00;;;13.50;98.20;;;;;;5000333;28;20560;-78
2023/10/22 08:50:58;;;;;;;1.50;1.00;;;13.50;98.20;;;;;;4993770;28;20717;-78
2023/10/22 08:53:25;;;;;;;1.60;1.10;;;13.50;98.20;;;;;;5000574;28;20464;-78
2023/10/22 08:55:52;;;;;;;1.50;1.00;;;13.50;98.20;;;;;;4990919;28;20563;-79
2023/10/22 08:58:21;;;;;;;1.50;1.00;;;13.50;98.20;;;;;;4994417;28;20543;-81
2023/10/22 09:00:49;;;;;;;1.50;1.00;;;13.50;98.20;;;;;;4992780;28;20582;-79
2023/10/22 09:03:17;;;;;;;1.57;1.10;;;13.50;98.20;;;;;;4996077;28;20680;-79
2023/10/22 09:05:46;;;;;;;1.53;1.00;;;13.50;98.20;;;;;;5002481;28;20570;-79
2023/10/22 09:08:15;;;;;;;1.50;1.00;;;13.60;98.20;;;;;;4975416;28;20587;-79
2023/10/22 09:10:42;;;;;;;1.50;1.00;;;13.60;98.20;;;;;;5005439;28;20487;-79
2023/10/22 09:13:17;;;;;;;1.53;1.10;;;13.70;98.20;;;;;;4984737;28;20496;-79
2023/10/22 09:15:45;;;;;;;1.50;1.00;;;13.70;98.20;;;;;;5003010;28;20466;-79
2023/10/22 09:18:12;;;;;;;1.50;1.00;;;13.70;98.20;;;;;;4977842;28;20563;-79
2023/10/22 09:20:39;;;;;;;1.50;1.00;;;13.60;98.20;;;;;;5008459;28;20551;-77
2023/10/22 09:23:15;;;;;;;1.50;1.00;;;13.60;98.20;;;;;;4995572;28;20949;-77
2023/10/22 09:25:42;;;;;;;1.50;1.00;;;13.60;98.20;;;;;;5003287;28;20463;-77
2023/10/22 09:28:17;;;;;;;1.60;1.00;;;13.60;98.20;;;;;;4987660;28;20503;-77
2023/10/22 09:30:44;;;;;;;1.60;1.20;;;13.60;98.20;;;;;;5007159;28;20528;-81
2023/10/22 09:33:12;;;;;;;1.50;1.00;;;13.60;98.20;;;;;;4980247;28;20479;-79
2023/10/22 09:35:39;;;;;;;1.50;1.00;;;13.70;98.20;;;;;;5009556;28;20463;-78
2023/10/22 09:38:06;;;;;;;1.60;1.07;;;13.80;98.20;;;;;;4994664;28;21020;-78
2023/10/22 09:40:34;;;;;;;1.50;0.97;;;13.80;98.20;;;;;;5004212;28;20491;-77
2023/10/22 09:43:04;;;;;;;1.57;1.00;;;13.90;98.20;;;;;;4987950;28;20579;-77
2023/10/22 09:45:32;;;;;;;1.50;1.00;;;13.90;98.20;;;;;;5005832;28;20550;-77
2023/10/22 09:48:06;;;;;;;1.50;0.90;;;13.90;98.20;;;;;;4994579;28;20495;-77
2023/10/22 09:50:37;;;;;;;1.50;1.00;;;14.00;98.20;;;;;;5007016;28;20491;-79
2023/10/22 09:53:09;;;;;;;1.50;1.00;;;14.00;98.20;;;;;;4989749;28;20480;-78
2023/10/22 09:55:40;;;;;;;1.50;1.00;;;13.90;98.20;;;;;;5006989;28;20464;-80
2023/10/22 09:58:16;;;;;;;1.50;1.00;;;14.00;98.20;;;;;;4994334;28;21046;-81
2023/10/22 10:00:44;;;;;;;1.60;1.10;;;14.10;98.20;;;;;;5005712;28;20522;-78
2023/10/22 10:03:12;;;;;;;1.60;1.00;;;14.10;98.20;;;;;;4979705;28;20503;-81
2023/10/22 10:05:40;;;;;;;1.60;1.10;;;14.20;98.20;;;;;;5007813;28;20478;-80
2023/10/22 10:08:07;;;;;;;1.50;1.00;;;14.20;98.20;;;;;;4995975;28;20484;-80
2023/10/22 10:10:34;;;;;;;1.50;1.00;;;14.30;98.20;;;;;;5005625;28;20520;-80
2023/10/22 10:13:03;;;;;;;1.50;0.90;;;14.30;98.20;;;;;;4996128;28;20487;-79
2023/10/22 10:15:35;;;;;;;1.50;1.00;;;14.40;98.20;;;;;;5008294;28;20551;-79
2023/10/22 10:18:02;;;;;;;1.53;0.97;;;14.40;98.20;;;;;;4990519;28;20487;-79
2023/10/22 10:20:31;;;;;;;1.53;0.97;;;14.50;98.20;;;;;;5008330;28;20492;-80
2023/10/22 10:23:07;;;;;;;1.50;1.00;;;14.50;98.20;;;;;;4998898;28;20512;-80
2023/10/22 10:25:35;;;;;;;1.50;0.90;;;14.60;98.20;;;;;;5009268;28;21112;-79
2023/10/22 10:28:05;;;;;;;1.50;1.00;;;14.70;98.20;;;;;;4994035;28;20526;-78
2023/10/22 10:30:33;;;;;;;1.50;1.00;;;14.70;98.20;;;;;;5007267;28;20491;-79
2023/10/22 10:33:00;;;;;;;1.57;1.00;;;14.90;98.20;;;;;;4988861;28;20495;-79
2023/10/22 10:35:28;;;;;;;1.50;0.90;;;15.00;98.20;;;;;;5005315;28;20933;-80
2023/10/22 10:38:23;;;;;;;2.23;2.03;;;15.10;98.20;;;;;;4989346;28;20666;-81
2023/10/22 10:40:52;;;;;;;1.50;1.00;;;15.20;98.20;;;;;;4993642;28;20483;-80
2023/10/22 10:43:21;;;;;;;1.53;0.97;;;15.20;98.20;;;;;;4996159;28;20471;-80
2023/10/22 10:46:25;;;;;;;1.50;1.00;;;15.20;98.20;;;;;;4993024;28;20487;-81
2023/10/22 10:48:52;;;;;;;1.50;0.90;;;15.20;98.20;;;;;;5000644;28;20574;-79
2023/10/22 10:51:20;;;;;;;1.50;1.00;;;15.30;98.20;;;;;;4990823;28;20599;-78
2023/10/22 10:54:14;;;;;;;1.60;1.00;;;15.30;98.20;;;;;;5000586;28;20872;-78
2023/10/22 10:56:52;;;;;;;1.57;1.00;;;15.40;98.20;;;;;;4971029;28;20480;-78
2023/10/22 10:59:51;;;;;;;1.50;0.90;;;15.30;98.20;;;;;;4998808;28;20460;-79
2023/10/22 11:02:18;;;;;;;1.50;0.90;;;15.30;98.20;;;;;;4936084;28;21061;-79
2023/10/22 11:04:46;;;;;;;1.50;1.00;;;15.30;98.20;;;;;;5004474;28;20488;-81
2023/10/22 11:07:14;;;;;;;1.57;1.00;;;15.40;98.20;;;;;;4990262;28;20486;-80
2023/10/22 11:09:41;;;;;;;1.53;1.00;;;15.30;98.20;;;;;;5003234;28;20538;-78
2023/10/22 11:12:09;;;;;;;1.50;0.90;;;15.40;98.20;;;;;;4984992;28;20564;-78
2023/10/22 11:14:37;;;;;;;1.50;1.00;;;15.30;98.20;;;;;;4999683;28;20846;-78
2023/10/22 11:17:06;;;;;;;1.53;1.00;;;15.30;98.20;;;;;;4980632;28;20745;-79
2023/10/22 11:19:34;;;;;;;1.53;1.00;;;15.30;98.20;;;;;;4995364;28;20461;-78
2023/10/22 11:22:01;;;;;;;1.50;1.00;;;15.40;98.20;;;;;;4984325;28;20949;-81
2023/10/22 11:24:31;;;;;;;1.50;1.00;;;15.40;98.20;;;;;;4998290;28;20508;-78
2023/10/22 11:26:59;;;;;;;1.60;1.00;;;15.40;98.20;;;;;;4986966;28;20496;-80
2023/10/22 11:29:26;;;;;;;1.50;1.00;;;15.50;98.20;;;;;;4999217;28;20847;-79
2023/10/22 11:31:57;;;;;;;1.50;0.90;;;15.50;98.20;;;;;;4989164;28;20484;-80
2023/10/22 11:34:27;;;;;;;1.50;1.00;;;15.60;98.20;;;;;;5000989;28;20515;-79
2023/10/22 11:36:57;;;;;;;1.50;1.00;;;15.70;98.20;;;;;;4990940;28;20566;-80
2023/10/22 11:39:31;;;;;;;1.50;0.97;;;15.80;98.20;;;;;;4998130;28;20951;-81
2023/10/22 11:41:59;;;;;;;1.57;0.90;;;15.80;98.20;;;;;;4992461;28;20492;-79
2023/10/22 11:44:31;;;;;;;1.50;0.90;;;15.90;98.20;;;;;;4999208;28;20569;-79
2023/10/22 11:46:59;;;;;;;1.50;0.93;;;16.00;98.20;;;;;;4995331;28;20495;-81
2023/10/22 11:49:27;;;;;;;1.50;0.90;;;16.00;98.20;;;;;;5001323;28;20499;-81
2023/10/22 11:51:54;;;;;;;1.50;1.00;;;16.10;98.20;;;;;;4994594;28;20507;-79
2023/10/22 11:54:45;;;;;;;1.60;1.03;;;16.10;98.20;;;;;;5007594;28;20975;-80
2023/10/22 11:57:13;;;;;;;1.53;1.00;;;16.10;98.20;;;;;;4991163;28;20484;-80
2023/10/22 11:59:40;;;;;;;1.50;0.90;;;16.10;98.20;;;;;;4999504;28;20479;-80
2023/10/22 12:02:07;;;;;;;1.57;1.00;;;16.10;98.20;;;;;;4982234;28;21049;-80
2023/10/22 12:04:36;;;;;;;1.53;1.00;;;16.10;98.20;;;;;;4996667;28;20983;-79
2023/10/22 12:07:03;;;;;;;1.53;1.00;;;16.10;98.20;;;;;;4984228;28;20795;-79
2023/10/22 12:09:30;;;;;;;1.50;0.97;;;16.20;98.20;;;;;;5002822;28;20511;-79
2023/10/22 12:11:57;;;;;;;1.53;0.90;;;16.10;98.20;;;;;;4992023;28;20617;-80
2023/10/22 12:14:24;;;;;;;1.50;1.00;;;16.10;98.20;;;;;;4996872;28;20518;-80
2023/10/22 12:16:51;;;;;;;1.53;1.00;;;16.10;98.20;;;;;;4988568;28;20989;-80
2023/10/22 12:19:18;;;;;;;1.50;0.90;;;16.10;98.20;;;;;;4995767;28;20523;-80
2023/10/22 12:21:46;;;;;;;1.50;0.90;;;16.10;98.20;;;;;;4986214;28;20579;-81
2023/10/22 12:24:13;;;;;;;1.50;0.90;;;16.10;98.20;;;;;;5004026;28;20488;-81
2023/10/22 12:26:40;;;;;;;1.50;0.97;;;16.20;98.20;;;;;;4991693;28;20542;-79
2023/10/22 12:29:08;;;;;;;1.50;1.00;;;16.40;98.20;;;;;;5000790;28;20598;-78
2023/10/22 12:31:35;;;;;;;1.50;0.90;;;16.50;98.20;;;;;;4985253;28;21247;-82
2023/10/22 12:34:03;;;;;;;1.60;1.00;;;16.70;98.20;;;;;;5001235;28;20521;-79
2023/10/22 12:36:30;;;;;;;1.57;1.00;;;17.00;98.20;;;;;;4989119;28;20559;-79
2023/10/22 12:38:59;;;;;;;1.60;1.10;;;17.30;98.20;;;;;;4995685;28;20472;-78
2023/10/22 12:41:27;;;;;;;1.50;0.90;;;17.50;98.20;;;;;;4991229;28;20483;-80
2023/10/22 12:43:54;;;;;;;1.60;1.00;;;17.50;98.20;;;;;;4998583;28;20464;-79
2023/10/22 12:46:21;;;;;;;1.50;0.93;;;17.60;98.20;;;;;;4986639;28;20559;-80
2023/10/22 12:48:49;;;;;;;1.53;0.90;;;17.60;98.20;;;;;;4997941;28;20517;-81
2023/10/22 12:51:16;;;;;;;1.50;1.00;;;17.50;98.20;;;;;;4993624;28;20913;-80
2023/10/22 12:53:43;;;;;;;1.57;0.90;;;17.50;98.20;;;;;;4996507;28;20460;-81